sensor_id;sensor_type;location;lat;lon;timestamp;temperature;humidity
10986;DHT22;5546;48.714;8.738;2022-07-29T00:02:09;20.90;96.40
10986;DHT22;5546;48.714;8.738;2022-07-29T00:04:36;21.50;95.20
10986;DHT22;5546;48.714;8.738;2022-07-29T00:07:03;21.70;94.60
10986;DHT22;5546;48.714;8.738;2022-07-29T00:09:28;22.00;93.70
10986;DHT22;5546;48.714;8.738;2022-07-29T00:11:57;22.00;93.50
10986;DHT22;5546;48.714;8.738;2022-07-29T00:14:24;21.80;93.50
10986;DHT22;5546;48.714;8.738;2022-07-29T00:16:50;21.80;93.40
10986;DHT22;5546;48.714;8.738;2022-07-29T00:19:15;21.90;93.10
10986;DHT22;5546;48.714;8.738;2022-07-29T00:21:41;21.80;92.90
10986;DHT22;5546;48.714;8.738;2022-07-29T00:26:33;21.90;93.20
10986;DHT22;5546;48.714;8.738;2022-07-29T00:28:59;21.30;95.00
10986;DHT22;5546;48.714;8.738;2022-07-29T00:31:25;21.30;94.50
10986;DHT22;5546;48.714;8.738;2022-07-29T00:33:51;21.60;94.40
10986;DHT22;5546;48.714;8.738;2022-07-29T00:36:17;21.50;94.60
10986;DHT22;5546;48.714;8.738;2022-07-29T00:38:42;21.60;94.50
10986;DHT22;5546;48.714;8.738;2022-07-29T00:41:13;21.60;94.40
10986;DHT22;5546;48.714;8.738;2022-07-29T00:43:39;21.50;94.60
10986;DHT22;5546;48.714;8.738;2022-07-29T00:46:04;21.50;94.50
10986;DHT22;5546;48.714;8.738;2022-07-29T00:48:30;21.60;94.30
10986;DHT22;5546;48.714;8.738;2022-07-29T00:50:57;21.60;94.30
10986;DHT22;5546;48.714;8.738;2022-07-29T00:53:24;21.40;94.00
10986;DHT22;5546;48.714;8.738;2022-07-29T00:55:50;21.50;94.20
10986;DHT22;5546;48.714;8.738;2022-07-29T00:58:16;21.40;94.20
10986;DHT22;5546;48.714;8.738;2022-07-29T01:00:42;21.40;94.40
10986;DHT22;5546;48.714;8.738;2022-07-29T01:03:08;21.50;94.40
10986;DHT22;5546;48.714;8.738;2022-07-29T01:05:34;21.60;94.30
10986;DHT22;5546;48.714;8.738;2022-07-29T01:08:00;21.50;94.20
10986;DHT22;5546;48.714;8.738;2022-07-29T01:10:27;21.40;94.50
10986;DHT22;5546;48.714;8.738;2022-07-29T01:12:55;21.80;93.70
10986;DHT22;5546;48.714;8.738;2022-07-29T01:15:22;21.70;93.90
10986;DHT22;5546;48.714;8.738;2022-07-29T01:18:16;21.60;94.20
10986;DHT22;5546;48.714;8.738;2022-07-29T01:21:07;21.50;94.30
10986;DHT22;5546;48.714;8.738;2022-07-29T01:26:44;21.50;94.80
10986;DHT22;5546;48.714;8.738;2022-07-29T01:29:30;21.60;94.00
10986;DHT22;5546;48.714;8.738;2022-07-29T01:32:05;21.50;94.10
10986;DHT22;5546;48.714;8.738;2022-07-29T01:34:53;21.20;94.70
10986;DHT22;5546;48.714;8.738;2022-07-29T01:37:28;21.10;95.10
10986;DHT22;5546;48.714;8.738;2022-07-29T01:39:57;21.00;95.40
10986;DHT22;5546;48.714;8.738;2022-07-29T01:42:44;21.20;95.00
10986;DHT22;5546;48.714;8.738;2022-07-29T01:45:36;21.10;95.10
10986;DHT22;5546;48.714;8.738;2022-07-29T01:48:06;21.00;95.30
10986;DHT22;5546;48.714;8.738;2022-07-29T01:51:09;21.10;95.20
10986;DHT22;5546;48.714;8.738;2022-07-29T01:54:02;21.20;95.50
10986;DHT22;5546;48.714;8.738;2022-07-29T01:56:31;21.70;93.90
10986;DHT22;5546;48.714;8.738;2022-07-29T01:58:59;21.60;94.00
10986;DHT22;5546;48.714;8.738;2022-07-29T02:01:26;21.70;93.70
10986;DHT22;5546;48.714;8.738;2022-07-29T02:03:53;21.70;93.50
10986;DHT22;5546;48.714;8.738;2022-07-29T02:06:21;21.50;93.70
10986;DHT22;5546;48.714;8.738;2022-07-29T02:08:48;21.40;94.00
10986;DHT22;5546;48.714;8.738;2022-07-29T02:11:14;21.30;94.20
10986;DHT22;5546;48.714;8.738;2022-07-29T02:13:41;21.50;93.80
10986;DHT22;5546;48.714;8.738;2022-07-29T02:16:09;21.30;93.80
10986;DHT22;5546;48.714;8.738;2022-07-29T02:18:37;21.40;93.90
10986;DHT22;5546;48.714;8.738;2022-07-29T02:21:04;21.30;93.90
10986;DHT22;5546;48.714;8.738;2022-07-29T02:23:31;21.40;93.90
10986;DHT22;5546;48.714;8.738;2022-07-29T02:25:59;21.30;94.00
10986;DHT22;5546;48.714;8.738;2022-07-29T02:28:27;21.10;94.30
10986;DHT22;5546;48.714;8.738;2022-07-29T02:30:54;21.00;94.60
10986;DHT22;5546;48.714;8.738;2022-07-29T02:33:21;20.90;94.80
10986;DHT22;5546;48.714;8.738;2022-07-29T02:35:48;21.20;94.40
10986;DHT22;5546;48.714;8.738;2022-07-29T02:38:16;21.00;94.70
10986;DHT22;5546;48.714;8.738;2022-07-29T02:41:08;21.10;94.90
10986;DHT22;5546;48.714;8.738;2022-07-29T02:43:37;21.10;94.40
10986;DHT22;5546;48.714;8.738;2022-07-29T02:46:05;21.40;94.00
10986;DHT22;5546;48.714;8.738;2022-07-29T02:48:43;21.00;94.30
10986;DHT22;5546;48.714;8.738;2022-07-29T02:51:13;21.10;94.30
10986;DHT22;5546;48.714;8.738;2022-07-29T02:53:42;20.80;94.70
10986;DHT22;5546;48.714;8.738;2022-07-29T02:56:12;20.80;94.80
10986;DHT22;5546;48.714;8.738;2022-07-29T02:58:41;20.80;95.00
10986;DHT22;5546;48.714;8.738;2022-07-29T03:01:15;20.80;94.90
10986;DHT22;5546;48.714;8.738;2022-07-29T03:03:43;20.80;95.00
10986;DHT22;5546;48.714;8.738;2022-07-29T03:06:11;20.70;95.10
10986;DHT22;5546;48.714;8.738;2022-07-29T03:08:39;20.80;94.80
10986;DHT22;5546;48.714;8.738;2022-07-29T03:11:05;20.80;94.60
10986;DHT22;5546;48.714;8.738;2022-07-29T03:13:32;20.80;94.40
10986;DHT22;5546;48.714;8.738;2022-07-29T03:15:58;20.90;94.10
10986;DHT22;5546;48.714;8.738;2022-07-29T03:18:25;20.70;94.10
10986;DHT22;5546;48.714;8.738;2022-07-29T03:20:51;20.80;94.30
10986;DHT22;5546;48.714;8.738;2022-07-29T03:23:20;20.80;94.10
10986;DHT22;5546;48.714;8.738;2022-07-29T03:25:48;20.80;94.40
10986;DHT22;5546;48.714;8.738;2022-07-29T03:28:14;20.80;94.70
10986;DHT22;5546;48.714;8.738;2022-07-29T03:30:39;21.00;94.10
10986;DHT22;5546;48.714;8.738;2022-07-29T03:33:05;20.70;94.50
10986;DHT22;5546;48.714;8.738;2022-07-29T03:35:30;20.30;95.30
10986;DHT22;5546;48.714;8.738;2022-07-29T03:37:57;19.90;96.30
10986;DHT22;5546;48.714;8.738;2022-07-29T03:40:27;19.50;97.20
10986;DHT22;5546;48.714;8.738;2022-07-29T03:42:56;19.40;97.70
10986;DHT22;5546;48.714;8.738;2022-07-29T03:45:23;19.40;97.90
10986;DHT22;5546;48.714;8.738;2022-07-29T03:47:55;19.60;97.40
10986;DHT22;5546;48.714;8.738;2022-07-29T03:50:21;20.10;95.80
10986;DHT22;5546;48.714;8.738;2022-07-29T03:52:48;20.10;95.40
10986;DHT22;5546;48.714;8.738;2022-07-29T03:55:15;20.20;95.00
10986;DHT22;5546;48.714;8.738;2022-07-29T03:57:41;20.20;95.40
10986;DHT22;5546;48.714;8.738;2022-07-29T04:00:08;20.20;95.10
10986;DHT22;5546;48.714;8.738;2022-07-29T04:02:35;20.20;95.10
10986;DHT22;5546;48.714;8.738;2022-07-29T04:05:01;20.30;95.40
10986;DHT22;5546;48.714;8.738;2022-07-29T04:07:27;20.50;95.00
10986;DHT22;5546;48.714;8.738;2022-07-29T04:09:53;20.70;94.70
10986;DHT22;5546;48.714;8.738;2022-07-29T04:12:18;20.50;94.80
10986;DHT22;5546;48.714;8.738;2022-07-29T04:14:46;20.50;95.00
10986;DHT22;5546;48.714;8.738;2022-07-29T04:17:11;20.00;95.60
10986;DHT22;5546;48.714;8.738;2022-07-29T04:19:37;20.00;95.90
10986;DHT22;5546;48.714;8.738;2022-07-29T04:22:02;19.50;96.90
10986;DHT22;5546;48.714;8.738;2022-07-29T04:24:28;19.30;97.40
10986;DHT22;5546;48.714;8.738;2022-07-29T04:26:54;19.10;97.70
10986;DHT22;5546;48.714;8.738;2022-07-29T04:29:19;19.00;98.20
10986;DHT22;5546;48.714;8.738;2022-07-29T04:31:45;19.50;97.00
10986;DHT22;5546;48.714;8.738;2022-07-29T04:34:12;20.00;96.10
10986;DHT22;5546;48.714;8.738;2022-07-29T04:36:37;20.20;95.30
10986;DHT22;5546;48.714;8.738;2022-07-29T04:39:03;20.40;95.10
10986;DHT22;5546;48.714;8.738;2022-07-29T04:41:28;20.40;95.30
10986;DHT22;5546;48.714;8.738;2022-07-29T04:43:54;20.20;95.60
10986;DHT22;5546;48.714;8.738;2022-07-29T04:46:20;20.10;96.20
10986;DHT22;5546;48.714;8.738;2022-07-29T04:48:46;20.30;95.20
10986;DHT22;5546;48.714;8.738;2022-07-29T04:51:14;20.60;95.10
10986;DHT22;5546;48.714;8.738;2022-07-29T04:53:39;20.50;95.40
10986;DHT22;5546;48.714;8.738;2022-07-29T04:58:32;20.80;94.30
10986;DHT22;5546;48.714;8.738;2022-07-29T05:00:59;20.90;94.20
10986;DHT22;5546;48.714;8.738;2022-07-29T05:03:24;21.10;94.10
10986;DHT22;5546;48.714;8.738;2022-07-29T05:05:50;21.30;93.40
10986;DHT22;5546;48.714;8.738;2022-07-29T05:08:15;21.40;93.50
10986;DHT22;5546;48.714;8.738;2022-07-29T05:10:41;21.50;93.40
10986;DHT22;5546;48.714;8.738;2022-07-29T05:13:07;21.70;92.90
10986;DHT22;5546;48.714;8.738;2022-07-29T05:15:36;21.60;93.10
10986;DHT22;5546;48.714;8.738;2022-07-29T05:18:02;21.90;92.80
10986;DHT22;5546;48.714;8.738;2022-07-29T05:20:28;21.70;92.80
10986;DHT22;5546;48.714;8.738;2022-07-29T05:22:58;21.30;93.40
10986;DHT22;5546;48.714;8.738;2022-07-29T05:25:25;21.00;94.10
10986;DHT22;5546;48.714;8.738;2022-07-29T05:27:51;20.90;94.40
10986;DHT22;5546;48.714;8.738;2022-07-29T05:30:17;21.00;94.30
10986;DHT22;5546;48.714;8.738;2022-07-29T05:32:43;21.00;94.20
10986;DHT22;5546;48.714;8.738;2022-07-29T05:35:09;20.80;94.70
10986;DHT22;5546;48.714;8.738;2022-07-29T05:37:34;21.00;94.60
10986;DHT22;5546;48.714;8.738;2022-07-29T05:40:00;21.30;94.10
10986;DHT22;5546;48.714;8.738;2022-07-29T05:42:27;21.60;93.60
10986;DHT22;5546;48.714;8.738;2022-07-29T05:44:52;22.10;92.80
10986;DHT22;5546;48.714;8.738;2022-07-29T05:47:18;22.40;92.40
10986;DHT22;5546;48.714;8.738;2022-07-29T05:49:44;22.80;91.60
10986;DHT22;5546;48.714;8.738;2022-07-29T05:52:09;23.40;90.50
10986;DHT22;5546;48.714;8.738;2022-07-29T05:54:35;23.50;90.30
10986;DHT22;5546;48.714;8.738;2022-07-29T05:57:01;23.80;89.90
10986;DHT22;5546;48.714;8.738;2022-07-29T05:59:27;24.10;88.70
10986;DHT22;5546;48.714;8.738;2022-07-29T06:01:53;24.20;87.80
10986;DHT22;5546;48.714;8.738;2022-07-29T06:04:18;24.00;88.80
10986;DHT22;5546;48.714;8.738;2022-07-29T06:06:44;23.70;89.50
10986;DHT22;5546;48.714;8.738;2022-07-29T06:09:09;23.50;90.20
10986;DHT22;5546;48.714;8.738;2022-07-29T06:11:35;23.60;90.30
10986;DHT22;5546;48.714;8.738;2022-07-29T06:14:00;24.00;89.60
10986;DHT22;5546;48.714;8.738;2022-07-29T06:16:28;24.20;89.10
10986;DHT22;5546;48.714;8.738;2022-07-29T06:18:53;24.20;88.20
10986;DHT22;5546;48.714;8.738;2022-07-29T06:21:19;23.60;89.80
10986;DHT22;5546;48.714;8.738;2022-07-29T06:23:45;22.90;91.10
10986;DHT22;5546;48.714;8.738;2022-07-29T06:26:10;22.30;92.40
10986;DHT22;5546;48.714;8.738;2022-07-29T06:28:36;21.90;93.40
10986;DHT22;5546;48.714;8.738;2022-07-29T06:31:02;22.00;93.80
10986;DHT22;5546;48.714;8.738;2022-07-29T06:33:28;22.90;92.50
10986;DHT22;5546;48.714;8.738;2022-07-29T06:35:53;24.20;90.50
10986;DHT22;5546;48.714;8.738;2022-07-29T06:38:19;24.80;87.40
10986;DHT22;5546;48.714;8.738;2022-07-29T06:40:45;25.30;86.00
10986;DHT22;5546;48.714;8.738;2022-07-29T06:43:36;25.70;84.10
10986;DHT22;5546;48.714;8.738;2022-07-29T06:46:05;25.70;83.40
10986;DHT22;5546;48.714;8.738;2022-07-29T06:48:32;25.40;84.20
10986;DHT22;5546;48.714;8.738;2022-07-29T06:50:58;25.40;84.90
10986;DHT22;5546;48.714;8.738;2022-07-29T06:53:24;26.30;82.30
10986;DHT22;5546;48.714;8.738;2022-07-29T06:55:50;26.40;81.40
10986;DHT22;5546;48.714;8.738;2022-07-29T06:58:15;26.60;80.70
10986;DHT22;5546;48.714;8.738;2022-07-29T07:00:44;27.50;78.40
10986;DHT22;5546;48.714;8.738;2022-07-29T07:03:10;28.40;74.90
10986;DHT22;5546;48.714;8.738;2022-07-29T07:05:36;28.40;74.40
10986;DHT22;5546;48.714;8.738;2022-07-29T07:08:02;28.50;74.30
10986;DHT22;5546;48.714;8.738;2022-07-29T07:10:27;28.80;72.70
10986;DHT22;5546;48.714;8.738;2022-07-29T07:12:53;29.00;72.20
10986;DHT22;5546;48.714;8.738;2022-07-29T07:17:48;30.00;69.90
10986;DHT22;5546;48.714;8.738;2022-07-29T07:20:15;29.90;68.80
10986;DHT22;5546;48.714;8.738;2022-07-29T07:22:40;29.90;68.10
10986;DHT22;5546;48.714;8.738;2022-07-29T07:25:06;29.30;68.70
10986;DHT22;5546;48.714;8.738;2022-07-29T07:27:32;29.10;69.80
10986;DHT22;5546;48.714;8.738;2022-07-29T07:32:23;29.70;68.70
10986;DHT22;5546;48.714;8.738;2022-07-29T07:34:49;29.60;67.30
10986;DHT22;5546;48.714;8.738;2022-07-29T07:37:15;29.10;68.70
10986;DHT22;5546;48.714;8.738;2022-07-29T07:39:41;29.50;69.30
10986;DHT22;5546;48.714;8.738;2022-07-29T07:42:06;29.50;68.60
10986;DHT22;5546;48.714;8.738;2022-07-29T07:46:58;29.70;68.90
10986;DHT22;5546;48.714;8.738;2022-07-29T07:49:23;29.70;68.00
10986;DHT22;5546;48.714;8.738;2022-07-29T07:51:49;31.00;65.00
10986;DHT22;5546;48.714;8.738;2022-07-29T07:54:15;31.90;62.60
10986;DHT22;5546;48.714;8.738;2022-07-29T07:56:40;32.00;62.90
10986;DHT22;5546;48.714;8.738;2022-07-29T07:59:06;33.80;58.50
10986;DHT22;5546;48.714;8.738;2022-07-29T08:01:31;34.70;55.30
10986;DHT22;5546;48.714;8.738;2022-07-29T08:03:57;36.40;46.50
10986;DHT22;5546;48.714;8.738;2022-07-29T08:06:22;36.40;46.00
10986;DHT22;5546;48.714;8.738;2022-07-29T08:08:50;37.10;43.50
10986;DHT22;5546;48.714;8.738;2022-07-29T08:13:42;36.90;44.90
10986;DHT22;5546;48.714;8.738;2022-07-29T08:16:08;37.10;44.60
10986;DHT22;5546;48.714;8.738;2022-07-29T08:18:38;37.20;45.20
10986;DHT22;5546;48.714;8.738;2022-07-29T08:21:04;37.20;44.60
10986;DHT22;5546;48.714;8.738;2022-07-29T08:23:29;37.20;45.00
10986;DHT22;5546;48.714;8.738;2022-07-29T08:26:09;37.30;45.10
10986;DHT22;5546;48.714;8.738;2022-07-29T08:28:39;38.10;43.90
10986;DHT22;5546;48.714;8.738;2022-07-29T08:31:06;39.20;42.30
10986;DHT22;5546;48.714;8.738;2022-07-29T08:33:32;38.50;41.80
10986;DHT22;5546;48.714;8.738;2022-07-29T08:35:58;37.40;43.20
10986;DHT22;5546;48.714;8.738;2022-07-29T08:38:24;37.80;42.60
10986;DHT22;5546;48.714;8.738;2022-07-29T08:40:52;38.00;43.20
10986;DHT22;5546;48.714;8.738;2022-07-29T08:43:18;37.50;43.70
10986;DHT22;5546;48.714;8.738;2022-07-29T08:45:49;37.20;43.40
10986;DHT22;5546;48.714;8.738;2022-07-29T08:48:17;37.40;44.50
10986;DHT22;5546;48.714;8.738;2022-07-29T08:50:44;38.80;42.20
10986;DHT22;5546;48.714;8.738;2022-07-29T08:53:12;38.80;40.80
10986;DHT22;5546;48.714;8.738;2022-07-29T08:55:42;38.70;41.10
10986;DHT22;5546;48.714;8.738;2022-07-29T08:58:09;39.00;42.00
10986;DHT22;5546;48.714;8.738;2022-07-29T09:00:37;39.30;40.30
10986;DHT22;5546;48.714;8.738;2022-07-29T09:03:06;39.20;40.70
10986;DHT22;5546;48.714;8.738;2022-07-29T09:05:31;39.20;40.70
10986;DHT22;5546;48.714;8.738;2022-07-29T09:07:58;39.10;41.00
10986;DHT22;5546;48.714;8.738;2022-07-29T09:10:24;39.30;40.20
10986;DHT22;5546;48.714;8.738;2022-07-29T09:12:50;39.70;39.00
10986;DHT22;5546;48.714;8.738;2022-07-29T09:15:17;38.20;40.40
10986;DHT22;5546;48.714;8.738;2022-07-29T09:17:48;36.70;41.90
10986;DHT22;5546;48.714;8.738;2022-07-29T09:20:17;36.50;42.10
10986;DHT22;5546;48.714;8.738;2022-07-29T09:22:43;36.60;42.00
10986;DHT22;5546;48.714;8.738;2022-07-29T09:25:11;35.60;43.50
10986;DHT22;5546;48.714;8.738;2022-07-29T09:27:37;35.00;43.80
10986;DHT22;5546;48.714;8.738;2022-07-29T09:30:05;34.40;45.20
10986;DHT22;5546;48.714;8.738;2022-07-29T09:32:33;33.30;46.70
10986;DHT22;5546;48.714;8.738;2022-07-29T09:35:18;32.40;49.30
10986;DHT22;5546;48.714;8.738;2022-07-29T09:37:45;31.50;50.30
10986;DHT22;5546;48.714;8.738;2022-07-29T09:40:15;30.60;49.70
10986;DHT22;5546;48.714;8.738;2022-07-29T09:42:41;30.50;51.40
10986;DHT22;5546;48.714;8.738;2022-07-29T09:45:07;30.60;52.40
10986;DHT22;5546;48.714;8.738;2022-07-29T09:47:47;30.60;53.40
10986;DHT22;5546;48.714;8.738;2022-07-29T09:50:15;30.90;53.00
10986;DHT22;5546;48.714;8.738;2022-07-29T09:52:49;30.80;55.00
10986;DHT22;5546;48.714;8.738;2022-07-29T09:55:16;30.90;54.00
10986;DHT22;5546;48.714;8.738;2022-07-29T09:57:42;30.20;54.60
10986;DHT22;5546;48.714;8.738;2022-07-29T10:00:13;29.70;56.80
10986;DHT22;5546;48.714;8.738;2022-07-29T10:02:41;29.50;56.30
10986;DHT22;5546;48.714;8.738;2022-07-29T10:05:22;29.20;57.00
10986;DHT22;5546;48.714;8.738;2022-07-29T10:07:51;28.70;59.10
10986;DHT22;5546;48.714;8.738;2022-07-29T10:10:25;27.80;61.60
10986;DHT22;5546;48.714;8.738;2022-07-29T10:15:18;27.50;62.30
10986;DHT22;5546;48.714;8.738;2022-07-29T10:17:44;27.40;60.70
10986;DHT22;5546;48.714;8.738;2022-07-29T10:25:02;26.60;61.50
10986;DHT22;5546;48.714;8.738;2022-07-29T10:27:28;26.90;61.10
10986;DHT22;5546;48.714;8.738;2022-07-29T10:29:54;26.90;61.40
10986;DHT22;5546;48.714;8.738;2022-07-29T10:35:03;27.40;60.40
10986;DHT22;5546;48.714;8.738;2022-07-29T10:37:44;27.50;61.90
10986;DHT22;5546;48.714;8.738;2022-07-29T10:43:14;26.30;65.60
10986;DHT22;5546;48.714;8.738;2022-07-29T10:45:42;26.40;65.70
10986;DHT22;5546;48.714;8.738;2022-07-29T10:50:59;27.00;63.50
10986;DHT22;5546;48.714;8.738;2022-07-29T10:53:51;27.00;63.10
10986;DHT22;5546;48.714;8.738;2022-07-29T10:56:28;26.50;64.10
10986;DHT22;5546;48.714;8.738;2022-07-29T11:01:51;26.50;64.60
10986;DHT22;5546;48.714;8.738;2022-07-29T11:07:09;27.30;61.00
10986;DHT22;5546;48.714;8.738;2022-07-29T11:09:35;27.00;59.40
10986;DHT22;5546;48.714;8.738;2022-07-29T11:17:17;27.80;58.90
10986;DHT22;5546;48.714;8.738;2022-07-29T11:19:43;28.00;58.40
10986;DHT22;5546;48.714;8.738;2022-07-29T11:22:10;28.30;57.90
10986;DHT22;5546;48.714;8.738;2022-07-29T11:24:37;28.60;56.60
10986;DHT22;5546;48.714;8.738;2022-07-29T11:27:13;28.90;56.30
10986;DHT22;5546;48.714;8.738;2022-07-29T11:29:52;29.40;55.00
10986;DHT22;5546;48.714;8.738;2022-07-29T11:32:18;29.30;55.60
10986;DHT22;5546;48.714;8.738;2022-07-29T11:34:46;28.90;55.20
10986;DHT22;5546;48.714;8.738;2022-07-29T11:39:38;28.80;56.40
10986;DHT22;5546;48.714;8.738;2022-07-29T11:45:05;29.00;56.10
10986;DHT22;5546;48.714;8.738;2022-07-29T11:47:35;29.20;56.00
10986;DHT22;5546;48.714;8.738;2022-07-29T11:50:04;29.50;55.10
10986;DHT22;5546;48.714;8.738;2022-07-29T11:52:41;29.30;55.50
10986;DHT22;5546;48.714;8.738;2022-07-29T11:55:18;29.10;55.90
10986;DHT22;5546;48.714;8.738;2022-07-29T11:57:55;29.30;55.60
10986;DHT22;5546;48.714;8.738;2022-07-29T12:00:41;29.40;56.00
10986;DHT22;5546;48.714;8.738;2022-07-29T12:03:10;29.10;56.00
10986;DHT22;5546;48.714;8.738;2022-07-29T12:05:44;28.40;58.40
10986;DHT22;5546;48.714;8.738;2022-07-29T12:08:17;28.70;60.20
10986;DHT22;5546;48.714;8.738;2022-07-29T12:10:49;29.00;60.30
10986;DHT22;5546;48.714;8.738;2022-07-29T12:13:16;29.30;58.80
10986;DHT22;5546;48.714;8.738;2022-07-29T12:15:51;29.10;58.50
10986;DHT22;5546;48.714;8.738;2022-07-29T12:18:18;29.60;57.50
10986;DHT22;5546;48.714;8.738;2022-07-29T12:20:46;30.00;56.80
10986;DHT22;5546;48.714;8.738;2022-07-29T12:23:13;30.40;56.00
10986;DHT22;5546;48.714;8.738;2022-07-29T12:25:40;30.40;55.60
10986;DHT22;5546;48.714;8.738;2022-07-29T12:28:08;30.50;56.40
10986;DHT22;5546;48.714;8.738;2022-07-29T12:30:40;30.40;56.70
10986;DHT22;5546;48.714;8.738;2022-07-29T12:33:27;30.30;56.80
10986;DHT22;5546;48.714;8.738;2022-07-29T12:36:00;29.80;56.70
10986;DHT22;5546;48.714;8.738;2022-07-29T12:40:53;28.20;62.00
10986;DHT22;5546;48.714;8.738;2022-07-29T12:43:24;27.80;62.80
10986;DHT22;5546;48.714;8.738;2022-07-29T12:45:51;28.10;62.80
10986;DHT22;5546;48.714;8.738;2022-07-29T12:48:32;28.20;62.70
10986;DHT22;5546;48.714;8.738;2022-07-29T12:51:01;27.50;64.50
10986;DHT22;5546;48.714;8.738;2022-07-29T12:53:27;27.30;65.90
10986;DHT22;5546;48.714;8.738;2022-07-29T12:55:54;27.20;65.90
10986;DHT22;5546;48.714;8.738;2022-07-29T13:01:12;26.60;65.20
10986;DHT22;5546;48.714;8.738;2022-07-29T13:03:43;26.50;67.50
10986;DHT22;5546;48.714;8.738;2022-07-29T13:06:28;26.30;66.90
10986;DHT22;5546;48.714;8.738;2022-07-29T13:11:41;27.00;63.90
10986;DHT22;5546;48.714;8.738;2022-07-29T13:14:08;27.90;62.00
10986;DHT22;5546;48.714;8.738;2022-07-29T13:16:35;28.30;60.50
10986;DHT22;5546;48.714;8.738;2022-07-29T13:19:10;27.80;61.60
10986;DHT22;5546;48.714;8.738;2022-07-29T13:21:37;28.00;61.60
10986;DHT22;5546;48.714;8.738;2022-07-29T13:24:05;27.80;62.40
10986;DHT22;5546;48.714;8.738;2022-07-29T13:26:31;28.10;61.90
10986;DHT22;5546;48.714;8.738;2022-07-29T13:31:23;29.40;59.30
10986;DHT22;5546;48.714;8.738;2022-07-29T13:36:15;29.60;58.50
10986;DHT22;5546;48.714;8.738;2022-07-29T13:38:40;29.40;59.00
10986;DHT22;5546;48.714;8.738;2022-07-29T13:41:06;29.50;58.40
10986;DHT22;5546;48.714;8.738;2022-07-29T13:43:31;29.20;59.10
10986;DHT22;5546;48.714;8.738;2022-07-29T13:45:57;29.40;58.50
10986;DHT22;5546;48.714;8.738;2022-07-29T13:48:22;29.80;58.30
10986;DHT22;5546;48.714;8.738;2022-07-29T13:50:48;29.90;57.90
10986;DHT22;5546;48.714;8.738;2022-07-29T13:53:14;29.30;58.70
10986;DHT22;5546;48.714;8.738;2022-07-29T13:55:39;29.50;59.10
10986;DHT22;5546;48.714;8.738;2022-07-29T13:58:05;29.80;58.50
10986;DHT22;5546;48.714;8.738;2022-07-29T14:00:30;29.90;57.80
10986;DHT22;5546;48.714;8.738;2022-07-29T14:02:56;30.10;57.30
10986;DHT22;5546;48.714;8.738;2022-07-29T14:05:22;30.00;57.30
10986;DHT22;5546;48.714;8.738;2022-07-29T14:07:47;30.60;57.00
10986;DHT22;5546;48.714;8.738;2022-07-29T14:10:13;30.70;56.40
10986;DHT22;5546;48.714;8.738;2022-07-29T14:12:39;31.00;56.50
10986;DHT22;5546;48.714;8.738;2022-07-29T14:15:07;31.00;55.80
10986;DHT22;5546;48.714;8.738;2022-07-29T14:17:33;30.90;55.70
10986;DHT22;5546;48.714;8.738;2022-07-29T14:19:59;30.50;56.70
10986;DHT22;5546;48.714;8.738;2022-07-29T14:22:25;30.40;56.50
10986;DHT22;5546;48.714;8.738;2022-07-29T14:27:16;30.20;56.50
10986;DHT22;5546;48.714;8.738;2022-07-29T14:29:42;30.90;54.30
10986;DHT22;5546;48.714;8.738;2022-07-29T14:32:08;30.80;54.70
10986;DHT22;5546;48.714;8.738;2022-07-29T14:34:36;30.40;54.00
10986;DHT22;5546;48.714;8.738;2022-07-29T14:37:02;30.30;54.00
10986;DHT22;5546;48.714;8.738;2022-07-29T14:39:30;30.50;54.10
10986;DHT22;5546;48.714;8.738;2022-07-29T14:41:56;30.20;54.50
10986;DHT22;5546;48.714;8.738;2022-07-29T14:46:48;30.50;53.90
10986;DHT22;5546;48.714;8.738;2022-07-29T14:49:14;30.60;52.70
10986;DHT22;5546;48.714;8.738;2022-07-29T14:51:40;31.10;53.10
10986;DHT22;5546;48.714;8.738;2022-07-29T14:54:05;31.20;51.50
10986;DHT22;5546;48.714;8.738;2022-07-29T14:56:31;31.40;50.00
10986;DHT22;5546;48.714;8.738;2022-07-29T15:01:23;31.30;50.90
10986;DHT22;5546;48.714;8.738;2022-07-29T15:03:50;31.00;51.20
10986;DHT22;5546;48.714;8.738;2022-07-29T15:06:15;30.90;51.30
10986;DHT22;5546;48.714;8.738;2022-07-29T15:08:41;31.00;53.10
10986;DHT22;5546;48.714;8.738;2022-07-29T15:11:06;31.30;49.70
10986;DHT22;5546;48.714;8.738;2022-07-29T15:13:33;31.20;47.20
10986;DHT22;5546;48.714;8.738;2022-07-29T15:15:58;31.50;47.80
10986;DHT22;5546;48.714;8.738;2022-07-29T15:18:24;31.60;47.90
10986;DHT22;5546;48.714;8.738;2022-07-29T15:20:49;31.30;48.50
10986;DHT22;5546;48.714;8.738;2022-07-29T15:23:15;30.90;50.30
10986;DHT22;5546;48.714;8.738;2022-07-29T15:25:41;31.30;50.50
10986;DHT22;5546;48.714;8.738;2022-07-29T15:30:34;31.30;50.50
10986;DHT22;5546;48.714;8.738;2022-07-29T15:33:01;31.30;49.10
10986;DHT22;5546;48.714;8.738;2022-07-29T15:35:27;31.10;47.20
10986;DHT22;5546;48.714;8.738;2022-07-29T15:37:53;31.40;46.70
10986;DHT22;5546;48.714;8.738;2022-07-29T15:40:18;31.10;47.40
10986;DHT22;5546;48.714;8.738;2022-07-29T15:42:44;31.60;46.70
10986;DHT22;5546;48.714;8.738;2022-07-29T15:45:10;31.60;46.30
10986;DHT22;5546;48.714;8.738;2022-07-29T15:47:35;31.40;46.20
10986;DHT22;5546;48.714;8.738;2022-07-29T15:50:01;31.20;46.70
10986;DHT22;5546;48.714;8.738;2022-07-29T15:52:26;30.90;47.10
10986;DHT22;5546;48.714;8.738;2022-07-29T15:54:56;31.50;47.00
10986;DHT22;5546;48.714;8.738;2022-07-29T15:57:22;31.70;45.80
10986;DHT22;5546;48.714;8.738;2022-07-29T15:59:48;31.90;46.00
10986;DHT22;5546;48.714;8.738;2022-07-29T16:02:14;31.70;45.50
10986;DHT22;5546;48.714;8.738;2022-07-29T16:04:40;31.60;46.20
10986;DHT22;5546;48.714;8.738;2022-07-29T16:07:05;31.30;46.10
10986;DHT22;5546;48.714;8.738;2022-07-29T16:09:31;31.00;46.20
10986;DHT22;5546;48.714;8.738;2022-07-29T16:14:23;31.30;46.00
10986;DHT22;5546;48.714;8.738;2022-07-29T16:16:49;31.50;46.00
10986;DHT22;5546;48.714;8.738;2022-07-29T16:21:41;31.20;46.40
10986;DHT22;5546;48.714;8.738;2022-07-29T16:24:07;31.50;46.20
10986;DHT22;5546;48.714;8.738;2022-07-29T16:26:33;31.30;46.80
10986;DHT22;5546;48.714;8.738;2022-07-29T16:28:58;30.80;48.30
10986;DHT22;5546;48.714;8.738;2022-07-29T16:31:25;31.00;47.00
10986;DHT22;5546;48.714;8.738;2022-07-29T16:33:52;31.10;45.80
10986;DHT22;5546;48.714;8.738;2022-07-29T16:36:18;31.20;46.40
10986;DHT22;5546;48.714;8.738;2022-07-29T16:38:44;31.50;45.90
10986;DHT22;5546;48.714;8.738;2022-07-29T16:41:09;30.90;45.90
10986;DHT22;5546;48.714;8.738;2022-07-29T16:43:35;30.60;46.90
10986;DHT22;5546;48.714;8.738;2022-07-29T16:46:00;30.90;47.10
10986;DHT22;5546;48.714;8.738;2022-07-29T16:48:26;30.70;45.70
10986;DHT22;5546;48.714;8.738;2022-07-29T16:50:52;30.80;45.70
10986;DHT22;5546;48.714;8.738;2022-07-29T16:58:09;30.40;46.80
10986;DHT22;5546;48.714;8.738;2022-07-29T17:00:35;30.40;46.60
10986;DHT22;5546;48.714;8.738;2022-07-29T17:05:27;30.50;45.80
10986;DHT22;5546;48.714;8.738;2022-07-29T17:07:53;30.10;46.50
10986;DHT22;5546;48.714;8.738;2022-07-29T17:10:18;30.10;48.00
10986;DHT22;5546;48.714;8.738;2022-07-29T17:12:45;30.40;46.00
10986;DHT22;5546;48.714;8.738;2022-07-29T17:15:11;30.40;46.50